createdAt,value
2018-09-01T00:01:31.571Z,56078.91
2018-09-01T00:04:00.812Z,56080.96
2018-09-01T00:06:29.895Z,56101.53
2018-09-01T00:08:59.044Z,56087.14
2018-09-01T00:11:34.980Z,56099.47
2018-09-01T00:14:04.286Z,56069.65
2018-09-01T00:16:33.410Z,56091.25
2018-09-01T00:19:02.705Z,56096.39
2018-09-01T00:21:31.864Z,56083.02
2018-09-01T00:24:05.108Z,56087.14
2018-09-01T00:26:34.162Z,56123.12
2018-09-01T00:29:03.280Z,56093.30
2018-09-01T00:31:32.395Z,56057.32
2018-09-01T00:34:01.687Z,56097.42
2018-09-01T00:36:30.805Z,56079.94
2018-09-01T00:39:06.934Z,56066.57
2018-09-01T00:41:36.559Z,56062.46
2018-09-01T00:44:05.683Z,56079.94
2018-09-01T00:46:35.105Z,56087.14
2018-09-01T00:49:04.239Z,56070.68
2018-09-01T00:51:33.385Z,56079.94
2018-09-01T00:54:02.542Z,56099.47
2018-09-01T00:56:31.723Z,56082.00
2018-09-01T00:59:00.856Z,56082.00
2018-09-01T01:01:29.968Z,56072.74
2018-09-01T01:03:59.071Z,56051.14
2018-09-01T01:06:28.232Z,56088.16
2018-09-01T01:08:57.459Z,56078.91
2018-09-01T01:11:26.584Z,56058.34
2018-09-01T01:13:55.713Z,56102.56
2018-09-01T01:16:24.798Z,56126.21
2018-09-01T01:18:53.931Z,56111.81
2018-09-01T01:21:23.120Z,56089.19
2018-09-01T01:23:52.257Z,56097.42
2018-09-01T01:26:21.434Z,56061.43
2018-09-01T01:28:50.514Z,56058.34
2018-09-01T01:31:19.646Z,56064.51
2018-09-01T01:33:48.809Z,56086.11
2018-09-01T01:36:17.964Z,56077.88
2018-09-01T01:38:47.084Z,56122.09
2018-09-01T01:41:16.267Z,56074.80
2018-09-01T01:43:45.460Z,56101.53
2018-09-01T01:46:14.616Z,56082.00
2018-09-01T01:48:43.745Z,56102.56
2018-09-01T01:51:13.213Z,56086.11
2018-09-01T01:53:42.360Z,56071.71
2018-09-01T01:56:11.503Z,56097.42
2018-09-01T01:58:40.683Z,56077.88
2018-09-01T02:01:09.814Z,56059.37
2018-09-01T02:03:38.951Z,56093.30
2018-09-01T02:06:08.120Z,56064.51
2018-09-01T02:08:37.244Z,56077.88
2018-09-01T02:11:06.372Z,56071.71
2018-09-01T02:13:35.530Z,56086.11
2018-09-01T02:16:04.841Z,56085.08
2018-09-01T02:18:33.976Z,56116.95
2018-09-01T02:21:03.110Z,56082.00
2018-09-01T02:23:32.237Z,56092.28
2018-09-01T02:26:01.345Z,56091.25
2018-09-01T02:28:30.505Z,56071.71
2018-09-01T02:30:59.617Z,56095.36
2018-09-01T02:33:28.768Z,56073.77
2018-09-01T02:35:57.951Z,56102.56
2018-09-01T02:38:27.070Z,56100.50
2018-09-01T02:40:56.169Z,56094.33
2018-09-01T02:43:25.288Z,56091.25
2018-09-01T02:45:54.457Z,56091.25
2018-09-01T02:48:23.677Z,56091.25
2018-09-01T02:50:52.790Z,56121.07
2018-09-01T02:53:21.894Z,56073.77
2018-09-01T02:55:50.967Z,56074.80
2018-09-01T02:58:20.125Z,56098.45
2018-09-01T03:00:53.355Z,56112.84
2018-09-01T03:03:22.479Z,56091.25
2018-09-01T03:05:51.703Z,56091.25
2018-09-01T03:08:20.846Z,56096.39
2018-09-01T03:10:49.980Z,56097.42
2018-09-01T03:13:19.132Z,56092.28
2018-09-01T03:15:48.449Z,56112.84
2018-09-01T03:18:17.575Z,56100.50
2018-09-01T03:20:46.690Z,56090.22
2018-09-01T03:23:15.862Z,56070.68
2018-09-01T03:25:44.999Z,56057.32
2018-09-01T03:28:14.087Z,56108.73
2018-09-01T03:30:43.230Z,56078.91
2018-09-01T03:33:12.635Z,56097.42
2018-09-01T03:35:41.815Z,56078.91
2018-09-01T03:38:10.976Z,56100.50
2018-09-01T03:40:40.116Z,56111.81
2018-09-01T03:43:09.288Z,56100.50
2018-09-01T03:45:38.435Z,56049.09
2018-09-01T03:48:07.534Z,56086.11
2018-09-01T03:50:36.709Z,56100.50
2018-09-01T03:53:05.963Z,56073.77
2018-09-01T03:55:35.153Z,56126.21
2018-09-01T03:58:04.491Z,56100.50
2018-09-01T04:00:33.604Z,56051.14
2018-09-01T04:03:02.737Z,56135.46
2018-09-01T04:05:31.865Z,56103.59
2018-09-01T04:08:00.978Z,56099.47
2018-09-01T04:10:30.135Z,56095.36
2018-09-01T04:12:59.257Z,56091.25
2018-09-01T04:15:28.333Z,56114.90
2018-09-01T04:17:57.476Z,56084.05
2018-09-01T04:20:26.567Z,56123.12
2018-09-01T04:22:55.715Z,56120.04
2018-09-01T04:25:24.870Z,56094.33
2018-09-01T04:27:54.174Z,56069.65
2018-09-01T04:30:23.357Z,56109.76
2018-09-01T04:32:52.549Z,56067.60
2018-09-01T04:35:21.691Z,56101.53
2018-09-01T04:37:50.812Z,56092.28
2018-09-01T04:40:19.955Z,56094.33
2018-09-01T04:42:49.153Z,56067.60
2018-09-01T04:45:18.531Z,56074.80
2018-09-01T04:47:47.703Z,56104.62
2018-09-01T04:50:16.829Z,56090.22
2018-09-01T04:52:45.921Z,56113.87
2018-09-01T04:55:15.038Z,56073.77
2018-09-01T04:57:44.146Z,56092.28
2018-09-01T05:00:17.366Z,56089.19
2018-09-01T05:02:46.542Z,56097.42
2018-09-01T05:05:15.683Z,56073.77
2018-09-01T05:07:44.960Z,56071.71
2018-09-01T05:10:14.078Z,56096.39
2018-09-01T05:12:43.236Z,56089.19
2018-09-01T05:15:12.440Z,56059.37
2018-09-01T05:17:41.613Z,56092.28
2018-09-01T05:20:10.763Z,56104.62
2018-09-01T05:22:39.914Z,56077.88
2018-09-01T05:25:09.237Z,56096.39
2018-09-01T05:27:38.401Z,56085.08
2018-09-01T05:30:09.305Z,56092.28
2018-09-01T05:32:38.485Z,56075.82
2018-09-01T05:35:07.591Z,56079.94
2018-09-01T05:37:36.761Z,56084.05
2018-09-01T05:40:07.096Z,56078.91
2018-09-01T05:42:36.204Z,56072.74
2018-09-01T05:45:05.357Z,56072.74
2018-09-01T05:47:34.481Z,56090.22
2018-09-01T05:50:03.574Z,56059.37
2018-09-01T05:52:32.678Z,56062.46
2018-09-01T05:55:01.822Z,56053.20
2018-09-01T05:57:30.978Z,56042.92
2018-09-01T06:00:00.170Z,56044.98
2018-09-01T06:02:29.377Z,56060.40
2018-09-01T06:04:58.537Z,56031.61
2018-09-01T06:07:27.704Z,56042.92
2018-09-01T06:09:56.838Z,56059.37
2018-09-01T06:12:25.958Z,56058.34
2018-09-01T06:14:55.149Z,56052.18
2018-09-01T06:17:24.391Z,56010.02
2018-09-01T06:19:53.500Z,56057.32
2018-09-01T06:22:22.705Z,56027.50
2018-09-01T06:24:51.925Z,56018.24
2018-09-01T06:27:24.038Z,56030.58
2018-09-01T06:29:53.230Z,56015.16
2018-09-01T06:32:22.422Z,56058.34
2018-09-01T06:34:51.559Z,56026.47
2018-09-01T06:37:20.729Z,56036.75
2018-09-01T06:39:49.920Z,56029.55
2018-09-01T06:42:19.019Z,56044.98
2018-09-01T06:44:48.209Z,56068.62
2018-09-01T06:47:17.325Z,56018.24
2018-09-01T06:49:46.513Z,56028.52
2018-09-01T06:52:15.691Z,56004.87
2018-09-01T06:54:44.821Z,56040.86
2018-09-01T06:57:13.976Z,56029.55
2018-09-01T06:59:43.118Z,56066.57
2018-09-01T07:02:12.311Z,56016.19
2018-09-01T07:04:41.545Z,56067.60
2018-09-01T07:07:10.697Z,56020.30
2018-09-01T07:09:39.864Z,56032.64
2018-09-01T07:12:09.139Z,56028.52
2018-09-01T07:14:38.269Z,56034.70
2018-09-01T07:17:07.417Z,56040.86
2018-09-01T07:19:36.583Z,56032.64
2018-09-01T07:22:06.047Z,56044.98
2018-09-01T07:24:35.224Z,56024.41
2018-09-01T07:27:04.342Z,56027.50
2018-09-01T07:29:33.562Z,56020.30
2018-09-01T07:32:02.872Z,56025.44
2018-09-01T07:34:32.082Z,56015.16
2018-09-01T07:37:02.143Z,56034.70
2018-09-01T07:39:31.268Z,56002.82
2018-09-01T07:42:00.422Z,56020.30
2018-09-01T07:44:29.780Z,55997.68
2018-09-01T07:46:58.928Z,55991.51
2018-09-01T07:49:28.071Z,56014.13
2018-09-01T07:51:57.260Z,55987.40
2018-09-01T07:54:26.562Z,55993.57
2018-09-01T07:56:55.692Z,56004.87
2018-09-01T07:59:24.789Z,55981.23
2018-09-01T08:01:53.939Z,55979.17
2018-09-01T08:04:23.131Z,56007.96
2018-09-01T08:06:52.258Z,55978.14
2018-09-01T08:09:21.392Z,55998.71
2018-09-01T08:11:50.576Z,55981.23
2018-09-01T08:14:19.814Z,56019.27
2018-09-01T08:16:48.918Z,55977.11
2018-09-01T08:19:18.132Z,55999.73
2018-09-01T08:21:47.587Z,56014.13
2018-09-01T08:24:16.722Z,55992.54
2018-09-01T08:26:45.865Z,55975.06
2018-09-01T08:29:14.980Z,56002.82
2018-09-01T08:31:44.106Z,55991.51
2018-09-01T08:34:13.275Z,55986.37
2018-09-01T08:36:42.430Z,55998.71
2018-09-01T08:39:11.766Z,55990.48
2018-09-01T08:41:40.943Z,56010.02
2018-09-01T08:44:10.075Z,55993.57
2018-09-01T08:46:39.221Z,55985.34
2018-09-01T08:49:08.354Z,55990.48
2018-09-01T08:51:37.486Z,56007.96
2018-09-01T08:54:06.653Z,55995.62
2018-09-01T08:56:35.983Z,55962.72
2018-09-01T08:59:05.108Z,56000.76
2018-09-01T09:01:34.285Z,55983.28
2018-09-01T09:04:03.502Z,55990.48
2018-09-01T09:06:32.686Z,55983.28
2018-09-01T09:09:01.844Z,55993.57
2018-09-01T09:11:30.970Z,55995.62
2018-09-01T09:14:00.121Z,55987.40
2018-09-01T09:16:29.278Z,55998.71
2018-09-01T09:18:58.403Z,55967.86
2018-09-01T09:21:27.500Z,55894.86
2018-09-01T09:23:56.716Z,55835.22
2018-09-01T09:26:25.986Z,55849.62
2018-09-01T09:28:55.105Z,55855.79
2018-09-01T09:31:24.400Z,55869.15
2018-09-01T09:33:53.539Z,55917.48
2018-09-01T09:36:22.662Z,55845.50
2018-09-01T09:38:51.968Z,55923.65
2018-09-01T09:41:21.125Z,55908.23
2018-09-01T09:43:50.232Z,55853.73
2018-09-01T09:46:19.360Z,55824.94
2018-09-01T09:48:48.645Z,55853.73
2018-09-01T09:51:17.790Z,55867.10
2018-09-01T09:53:46.913Z,55914.39
2018-09-01T09:56:16.121Z,55930.84
2018-09-01T09:58:45.322Z,55952.44
2018-09-01T10:01:19.883Z,55884.57
2018-09-01T10:03:49.035Z,55865.04
2018-09-01T10:06:18.127Z,55912.34
2018-09-01T10:08:47.443Z,55911.31
2018-09-01T10:11:16.616Z,55966.83
2018-09-01T10:13:45.705Z,55917.48
2018-09-01T10:16:14.831Z,55888.69
2018-09-01T10:18:44.015Z,55906.17
2018-09-01T10:21:13.728Z,55907.20
2018-09-01T10:23:43.217Z,55885.61
2018-09-01T10:26:12.382Z,55874.29
2018-09-01T10:28:41.607Z,55864.01
2018-09-01T10:31:10.753Z,55909.25
2018-09-01T10:33:40.050Z,55927.76
2018-09-01T10:36:10.228Z,55949.35
2018-09-01T10:38:40.395Z,55942.16
2018-09-01T10:41:09.549Z,55905.14
2018-09-01T10:43:38.723Z,55901.03
2018-09-01T10:46:07.917Z,55887.66
2018-09-01T10:48:37.032Z,55907.20
2018-09-01T10:51:06.334Z,55904.11
2018-09-01T10:53:35.516Z,55894.86
2018-09-01T10:56:04.634Z,55970.95
2018-09-01T10:58:33.838Z,55920.56
2018-09-01T11:01:04.023Z,55963.75
2018-09-01T11:03:33.168Z,55944.21
2018-09-01T11:06:02.334Z,55910.28
2018-09-01T11:08:32.815Z,55920.56
2018-09-01T11:11:02.022Z,55954.49
2018-09-01T11:13:31.221Z,55964.78
2018-09-01T11:16:00.395Z,55949.35
2018-09-01T11:18:29.628Z,55933.93
2018-09-01T11:20:58.825Z,55946.27
2018-09-01T11:23:27.926Z,55963.75
2018-09-01T11:25:57.128Z,55964.78
2018-09-01T11:28:26.298Z,55945.24
2018-09-01T11:30:56.157Z,55962.72
2018-09-01T11:33:25.310Z,55953.46
2018-09-01T11:35:54.555Z,55953.46
2018-09-01T11:38:23.694Z,55997.68
2018-09-01T11:40:53.005Z,55975.06
2018-09-01T11:43:22.213Z,55978.14
2018-09-01T11:45:51.332Z,56020.30
2018-09-01T11:48:20.543Z,55965.80
2018-09-01T11:50:49.681Z,55940.10
2018-09-01T11:53:18.899Z,55935.98
2018-09-01T11:55:47.923Z,55927.76
2018-09-01T11:58:17.156Z,55962.72
2018-09-01T12:00:46.336Z,55951.41
2018-09-01T12:03:15.474Z,55989.45
2018-09-01T12:05:44.582Z,55998.71
2018-09-01T12:08:13.720Z,55996.65
2018-09-01T12:10:42.887Z,55998.71
2018-09-01T12:13:12.197Z,55976.09
2018-09-01T12:15:41.520Z,56016.19
2018-09-01T12:18:10.673Z,55977.11
2018-09-01T12:20:40.013Z,55938.04
2018-09-01T12:23:09.213Z,55970.95
2018-09-01T12:25:38.393Z,55919.54
2018-09-01T12:28:07.586Z,55918.50
2018-09-01T12:30:36.728Z,55953.46
2018-09-01T12:33:05.997Z,55954.49
2018-09-01T12:35:35.135Z,55951.41
2018-09-01T12:38:04.259Z,55929.82
2018-09-01T12:40:33.396Z,55971.97
2018-09-01T12:43:02.500Z,55990.48
2018-09-01T12:45:31.636Z,56014.13
2018-09-01T12:48:00.774Z,55967.86
2018-09-01T12:50:29.893Z,55974.03
2018-09-01T12:52:59.106Z,55955.52
2018-09-01T12:55:28.206Z,55931.87
2018-09-01T12:57:57.276Z,55946.27
2018-09-01T13:00:26.477Z,55929.82
2018-09-01T13:02:55.600Z,55894.86
2018-09-01T13:05:24.744Z,55892.80
2018-09-01T13:07:53.959Z,55922.62
2018-09-01T13:10:23.085Z,55889.72
2018-09-01T13:12:52.222Z,55873.27
2018-09-01T13:15:21.342Z,55910.28
2018-09-01T13:17:50.702Z,55922.62
2018-09-01T13:20:19.819Z,55945.24
2018-09-01T13:22:48.939Z,55971.97
2018-09-01T13:25:18.200Z,55983.28
2018-09-01T13:27:47.346Z,55968.89
2018-09-01T13:30:16.471Z,55978.14
2018-09-01T13:32:45.669Z,55975.06
2018-09-01T13:35:14.885Z,55975.06
2018-09-01T13:37:44.208Z,55943.18
2018-09-01T13:40:13.511Z,55915.42
2018-09-01T13:42:42.646Z,55902.05
2018-09-01T13:45:11.826Z,55884.57
2018-09-01T13:47:41.012Z,55918.50
2018-09-01T13:50:10.160Z,55959.63
2018-09-01T13:52:39.279Z,55985.34
2018-09-01T13:55:08.517Z,55995.62
2018-09-01T13:57:37.670Z,55976.09
2018-09-01T14:00:07.145Z,55976.09
2018-09-01T14:02:36.293Z,55993.57
2018-09-01T14:05:05.442Z,55974.03
2018-09-01T14:07:34.737Z,55944.21
2018-09-01T14:10:04.226Z,55952.44
2018-09-01T14:12:33.328Z,55897.94
2018-09-01T14:15:02.511Z,55910.28
2018-09-01T14:17:31.673Z,55905.14
2018-09-01T14:20:00.820Z,55870.18
2018-09-01T14:22:30.073Z,55915.42
2018-09-01T14:24:59.204Z,55932.90
2018-09-01T14:27:28.402Z,55946.27
2018-09-01T14:29:57.525Z,55962.72
2018-09-01T14:32:26.615Z,55973.00
2018-09-01T14:34:55.751Z,55950.38
2018-09-01T14:37:24.855Z,55979.17
2018-09-01T14:39:54.032Z,55974.03
2018-09-01T14:42:23.247Z,55967.86
2018-09-01T14:44:52.403Z,55958.61
2018-09-01T14:47:21.673Z,55949.35
2018-09-01T14:49:50.820Z,55940.10
2018-09-01T14:52:19.964Z,55935.98
2018-09-01T14:54:49.138Z,55928.79
2018-09-01T14:57:18.242Z,55969.92
2018-09-01T14:59:48.521Z,55953.46
2018-09-01T15:02:18.099Z,55954.49
2018-09-01T15:04:47.275Z,55927.76
2018-09-01T15:07:16.951Z,55954.49
2018-09-01T15:09:46.109Z,55970.95
2018-09-01T15:12:15.201Z,55925.70
2018-09-01T15:14:44.323Z,55955.52
2018-09-01T15:17:13.531Z,55999.73
2018-09-01T15:19:42.769Z,55956.55
2018-09-01T15:22:12.292Z,55938.04
2018-09-01T15:24:41.488Z,55944.21
2018-09-01T15:27:11.391Z,55965.80
2018-09-01T15:29:40.466Z,55954.49
2018-09-01T15:32:09.639Z,55949.35
2018-09-01T15:34:38.738Z,55913.36
2018-09-01T15:37:07.945Z,55922.62
2018-09-01T15:39:37.152Z,55926.73
2018-09-01T15:42:06.630Z,55933.93
2018-09-01T15:44:35.818Z,55952.44
2018-09-01T15:47:05.016Z,55947.30
2018-09-01T15:49:34.244Z,55961.69
2018-09-01T15:52:03.384Z,55978.14
2018-09-01T15:54:32.594Z,55950.38
2018-09-01T15:57:01.714Z,55970.95
2018-09-01T15:59:30.889Z,55940.10
2018-09-01T16:02:00.138Z,55966.83
2018-09-01T16:04:35.970Z,55975.06
2018-09-01T16:07:05.162Z,56004.87
2018-09-01T16:09:34.386Z,55967.86
2018-09-01T16:12:03.583Z,55980.20
2018-09-01T16:14:32.739Z,55990.48
2018-09-01T16:17:02.081Z,55968.89
2018-09-01T16:19:31.171Z,55955.52
2018-09-01T16:22:00.331Z,55949.35
2018-09-01T16:24:29.505Z,55952.44
2018-09-01T16:26:58.748Z,55975.06
2018-09-01T16:29:27.821Z,55947.30
2018-09-01T16:31:56.992Z,55968.89
2018-09-01T16:34:26.276Z,55955.52
2018-09-01T16:36:55.343Z,55974.03
2018-09-01T16:39:24.445Z,55985.34
2018-09-01T16:41:53.599Z,55950.38
2018-09-01T16:44:22.746Z,55943.18
2018-09-01T16:46:51.888Z,55973.00
2018-09-01T16:49:21.055Z,55968.89
2018-09-01T16:51:50.461Z,55984.31
2018-09-01T16:54:19.753Z,55982.25
2018-09-01T16:56:48.878Z,55998.71
2018-09-01T16:59:18.085Z,56034.70
2018-09-01T17:01:47.272Z,55981.23
2018-09-01T17:04:16.421Z,55958.61
2018-09-01T17:06:45.583Z,55971.97
2018-09-01T17:09:14.738Z,55984.31
2018-09-01T17:11:43.941Z,56006.93
2018-09-01T17:14:13.162Z,56017.21
2018-09-01T17:16:42.265Z,55993.57
2018-09-01T17:19:11.452Z,55975.06
2018-09-01T17:21:40.600Z,56005.90
2018-09-01T17:24:09.789Z,55987.40
2018-09-01T17:26:39.002Z,56014.13
2018-09-01T17:29:08.115Z,56007.96
2018-09-01T17:31:37.341Z,56010.02
2018-09-01T17:34:06.498Z,55994.59
2018-09-01T17:36:35.630Z,56018.24
2018-09-01T17:39:06.499Z,56011.05
2018-09-01T17:41:35.671Z,56014.13
2018-09-01T17:44:04.985Z,55983.28
2018-09-01T17:46:34.182Z,55989.45
2018-09-01T17:49:03.324Z,55993.57
2018-09-01T17:51:32.425Z,56008.99
2018-09-01T17:54:01.743Z,56022.36
2018-09-01T17:56:31.049Z,55981.23
2018-09-01T17:59:00.113Z,56048.06
2018-09-01T18:01:29.809Z,56004.87
2018-09-01T18:03:58.921Z,56023.38
2018-09-01T18:06:27.994Z,56001.79
2018-09-01T18:08:57.234Z,56044.98
2018-09-01T18:11:26.389Z,56010.02
2018-09-01T18:13:55.489Z,56014.13
2018-09-01T18:16:24.706Z,55994.59
2018-09-01T18:18:53.765Z,56026.47
2018-09-01T18:21:23.032Z,56001.79
2018-09-01T18:23:52.250Z,56007.96
2018-09-01T18:26:21.386Z,56019.27
2018-09-01T18:28:50.522Z,56030.58
2018-09-01T18:31:19.677Z,56029.55
2018-09-01T18:33:48.815Z,56034.70
2018-09-01T18:36:18.134Z,56035.72
2018-09-01T18:38:47.590Z,56028.52
2018-09-01T18:41:16.777Z,56044.98
2018-09-01T18:43:46.080Z,56029.55
2018-09-01T18:46:15.411Z,56004.87
2018-09-01T18:48:44.583Z,56020.30
2018-09-01T18:51:13.919Z,56055.26
2018-09-01T18:53:43.122Z,56048.06
2018-09-01T18:56:12.268Z,56053.20
2018-09-01T18:58:41.597Z,56052.18
2018-09-01T19:01:10.803Z,56038.81
2018-09-01T19:03:39.998Z,56012.07
2018-09-01T19:06:09.162Z,56020.30
2018-09-01T19:08:38.261Z,56016.19
2018-09-01T19:11:07.327Z,56051.14
2018-09-01T19:13:36.537Z,56029.55
2018-09-01T19:16:05.951Z,56023.38
2018-09-01T19:18:35.374Z,56031.61
2018-09-01T19:21:04.520Z,56031.61
2018-09-01T19:23:33.684Z,56042.92
2018-09-01T19:26:02.971Z,56023.38
2018-09-01T19:28:32.232Z,56027.50
2018-09-01T19:31:01.352Z,56007.96
2018-09-01T19:33:30.497Z,56037.78
2018-09-01T19:35:59.674Z,56007.96
2018-09-01T19:38:28.855Z,56033.67
2018-09-01T19:40:57.963Z,56034.70
2018-09-01T19:43:27.261Z,56016.19
2018-09-01T19:45:56.443Z,56024.41
2018-09-01T19:48:25.564Z,56012.07
2018-09-01T19:50:54.736Z,56041.89
2018-09-01T19:53:23.932Z,56027.50
2018-09-01T19:55:53.065Z,56029.55
2018-09-01T19:58:22.276Z,56024.41
2018-09-01T20:00:51.421Z,56024.41
2018-09-01T20:03:20.616Z,55999.73
2018-09-01T20:05:49.802Z,56012.07
2018-09-01T20:08:18.967Z,56053.20
2018-09-01T20:10:48.054Z,56040.86
2018-09-01T20:13:17.247Z,56026.47
2018-09-01T20:15:46.371Z,56044.98
2018-09-01T20:18:15.558Z,56025.44
2018-09-01T20:20:44.753Z,56021.33
2018-09-01T20:23:14.058Z,56019.27
2018-09-01T20:25:43.308Z,56005.90
2018-09-01T20:28:12.492Z,56043.95
2018-09-01T20:30:41.642Z,56035.72
2018-09-01T20:33:10.913Z,56036.75
2018-09-01T20:35:45.392Z,56039.84
2018-09-01T20:38:14.530Z,56019.27
2018-09-01T20:40:43.648Z,56028.52
2018-09-01T20:43:13.039Z,56051.14
2018-09-01T20:45:42.219Z,56040.86
2018-09-01T20:48:11.361Z,56029.55
2018-09-01T20:50:40.471Z,56041.89
2018-09-01T20:53:09.609Z,56020.30
2018-09-01T20:55:38.755Z,56020.30
2018-09-01T20:58:07.913Z,56044.98
2018-09-01T21:00:37.105Z,56041.89
2018-09-01T21:03:06.235Z,56005.90
2018-09-01T21:05:35.458Z,56025.44
2018-09-01T21:08:04.728Z,56024.41
2018-09-01T21:10:33.919Z,56022.36
2018-09-01T21:13:03.076Z,56022.36
2018-09-01T21:15:32.247Z,56033.67
2018-09-01T21:18:01.409Z,56010.02
2018-09-01T21:20:30.623Z,56029.55
2018-09-01T21:22:59.842Z,56057.32
2018-09-01T21:25:29.029Z,56000.76
2018-09-01T21:27:58.214Z,56028.52
2018-09-01T21:30:27.366Z,56012.07
2018-09-01T21:32:57.172Z,56012.07
2018-09-01T21:35:26.312Z,56046.00
2018-09-01T21:37:55.521Z,56028.52
2018-09-01T21:40:24.676Z,56028.52
2018-09-01T21:42:53.768Z,56007.96
2018-09-01T21:45:22.951Z,56002.82
2018-09-01T21:47:52.114Z,56058.34
2018-09-01T21:50:21.256Z,56044.98
2018-09-01T21:52:50.448Z,56023.38
2018-09-01T21:55:19.582Z,56013.10
2018-09-01T21:57:48.688Z,56026.47
2018-09-01T22:00:17.812Z,56036.75
2018-09-01T22:02:46.977Z,56031.61
2018-09-01T22:05:18.214Z,56043.95
2018-09-01T22:07:47.523Z,56006.93
2018-09-01T22:10:16.686Z,56056.29
2018-09-01T22:12:45.865Z,56020.30
2018-09-01T22:15:15.050Z,56057.32
2018-09-01T22:17:44.227Z,56046.00
2018-09-01T22:20:13.341Z,56053.20
2018-09-01T22:22:42.466Z,56032.64
2018-09-01T22:25:11.646Z,56028.52
2018-09-01T22:27:40.817Z,56048.06
2018-09-01T22:30:10.006Z,56049.09
2018-09-01T22:32:39.237Z,56023.38
2018-09-01T22:35:08.399Z,56038.81
2018-09-01T22:37:37.586Z,56036.75
2018-09-01T22:40:06.691Z,56041.89
2018-09-01T22:42:35.816Z,56049.09
2018-09-01T22:45:05.180Z,56035.72
2018-09-01T22:47:35.416Z,56043.95
2018-09-01T22:50:04.527Z,56040.86
2018-09-01T22:52:33.706Z,56017.21
2018-09-01T22:55:03.051Z,56057.32
2018-09-01T22:57:32.277Z,56057.32
2018-09-01T23:00:01.408Z,56049.09
2018-09-01T23:02:30.550Z,56055.26
2018-09-01T23:04:59.765Z,56061.43
2018-09-01T23:07:28.922Z,56053.20
2018-09-01T23:09:58.118Z,56037.78
2018-09-01T23:12:27.357Z,56033.67
2018-09-01T23:14:56.512Z,56050.12
2018-09-01T23:17:25.794Z,56026.47
2018-09-01T23:19:54.926Z,56020.30
2018-09-01T23:22:24.044Z,56019.27
2018-09-01T23:24:53.357Z,56049.09
2018-09-01T23:27:22.480Z,56020.30
2018-09-01T23:29:51.658Z,56053.20
2018-09-01T23:32:20.838Z,56055.26
2018-09-01T23:34:50.015Z,56046.00
2018-09-01T23:37:19.158Z,56043.95
2018-09-01T23:39:48.312Z,56029.55
2018-09-01T23:42:17.571Z,56027.50
2018-09-01T23:44:46.691Z,56051.14
2018-09-01T23:47:15.888Z,56020.30
2018-09-01T23:49:45.110Z,56038.81
2018-09-01T23:52:14.612Z,56032.64
2018-09-01T23:54:43.785Z,56039.84
2018-09-01T23:57:12.930Z,56024.41
2018-09-01T23:59:42.126Z,56038.81
